Royal Prince — WCX8037 — position and weather

sailwx.info

Track history (hours):
 
Tides and Currents Weather Stations Pressure Air Temp Water Temp Dewpoint Dewpoint Depression Visibility Wind Speed Wind Dir Waves Ship Positions

Royal Prince

Owner: Golden Gate Scenic Steamship Corp, SAN FRANCISCO, CA. More information available from US FCC via Universal Licensing System and Coast Guard Vessel Documentation Center.

Last reported at 2017-Apr-25 22:01 UTC. Time now 2017-Apr-25 22:25 UTC.
Position N 37°49' W 122°27'.

; draft 3 m.

Type: Passenger vessel. MMSI: 366975760.

Date/timePositionNaut miles runAvg speedWind from/ knotsBaromVisibWave heightAir tempDewpointWater temp
2017-Apr-25 22:01N 37°49' W 122°27'2 4.2
2017-Apr-25 21:30N 37°49' W 122°25'0 0.9
2017-Apr-25 21:01N 37°49' W 122°24'3 6.7
2017-Apr-25 20:31N 37°49' W 122°29'3 6.2
2017-Apr-25 20:01N 37°49' W 122°25'0 0.0
2017-Apr-25 19:30N 37°49' W 122°25'1 1.9
2017-Apr-25 19:00N 37°50' W 122°25'2 3.3
2017-Apr-25 18:30N 37°49' W 122°27'2 3.2
2017-Apr-25 18:00N 37°49' W 122°25'2 4.1
2017-Apr-25 17:30N 37°50' W 122°27'2 4.0
2017-Apr-25 17:00N 37°49' W 122°25'0 0.0
2017-Apr-25 01:05N 37°49' W 122°25'0 0.0
2017-Apr-25 01:00N 37°49' W 122°25'2 3.9
2017-Apr-25 00:30N 37°49' W 122°27'2 3.9
2017-Apr-25 00:00N 37°49' W 122°25'1 1.6
2017-Apr-24 23:30N 37°49' W 122°25'2 4.0
2017-Apr-24 23:00N 37°49' W 122°27'2 4.0
2017-Apr-24 22:30N 37°49' W 122°25'2 4.1
2017-Apr-24 22:00N 37°50' W 122°27'2 4.0
2017-Apr-24 21:30N 37°49' W 122°25'0 0.9
2017-Apr-24 21:00N 37°49' W 122°24'3 6.6
2017-Apr-24 20:30N 37°49' W 122°29'3 6.1
2017-Apr-24 20:00N 37°49' W 122°25'0 0.0
2017-Apr-24 19:30N 37°49' W 122°25'1 1.8
2017-Apr-24 19:00N 37°49' W 122°25'2 3.9
2017-Apr-24 18:30N 37°49' W 122°27'2 3.9
2017-Apr-24 18:00N 37°49' W 122°25'2 4.7
2017-Apr-24 17:30N 37°49' W 122°28'2 4.7
2017-Apr-24 17:00N 37°49' W 122°25'0 0.0
2017-Apr-24 01:07N 37°49' W 122°25'0 0.0
2017-Apr-24 01:00N 37°49' W 122°25'3 5.3
2017-Apr-24 00:30N 37°49' W 122°28'3 5.3
2017-Apr-24 00:00N 37°49' W 122°25'1 2.1
2017-Apr-23 23:30N 37°50' W 122°25'2 3.1
2017-Apr-23 23:00N 37°49' W 122°27'2 3.2
2017-Apr-23 22:30N 37°49' W 122°25'2 4.6
2017-Apr-23 22:00N 37°49' W 122°28'2 4.5
2017-Apr-23 21:30N 37°49' W 122°25'1 1.3
2017-Apr-23 21:00N 37°49' W 122°25'3 5.5
2017-Apr-23 20:30N 37°49' W 122°28'3 5.2
2017-Apr-23 20:00N 37°49' W 122°25'0 0.0
2017-Apr-23 19:30N 37°49' W 122°25'1 1.7
2017-Apr-23 19:00N 37°49' W 122°25'2 3.9
2017-Apr-23 18:30N 37°49' W 122°27'2 3.9
2017-Apr-23 18:00N 37°49' W 122°25'2 4.2
2017-Apr-23 17:30N 37°49' W 122°27'2 4.2
2017-Apr-23 17:00N 37°49' W 122°25'0 0.0
2017-Apr-23 01:15N 37°49' W 122°25'0 0.0
2017-Apr-23 01:00N 37°49' W 122°25'3 6.1
2017-Apr-23 00:30N 37°49' W 122°29'3 5.9
2017-Apr-22 23:59N 37°49' W 122°25'1 2.5
2017-Apr-22 23:30N 37°50' W 122°25'1 2.6
2017-Apr-22 23:00N 37°49' W 122°27'1 2.7
2017-Apr-22 22:30N 37°49' W 122°25'2 4.8
2017-Apr-22 22:00N 37°49' W 122°28'2 4.7
2017-Apr-22 21:30N 37°49' W 122°25'1 1.5
2017-Apr-22 21:00N 37°49' W 122°25'3 5.5
2017-Apr-22 20:30N 37°49' W 122°28'3 5.2
2017-Apr-22 20:00N 37°49' W 122°25'0 0.0
2017-Apr-22 19:30N 37°49' W 122°25'1 2.4
2017-Apr-22 19:00N 37°50' W 122°25'2 3.2
2017-Apr-22 18:30N 37°49' W 122°27'2 3.5
2017-Apr-22 18:00N 37°49' W 122°25'3 5.7
2017-Apr-22 17:30N 37°49' W 122°28'3 5.7
2017-Apr-22 17:00N 37°49' W 122°25'0 0.0
2017-Apr-22 16:30N 37°49' W 122°25'0 0.0
2017-Apr-22 05:35N 37°49' W 122°25'0 0.0
2017-Apr-22 05:30N 37°49' W 122°25'0 0.0
2017-Apr-22 05:00N 37°49' W 122°25'2 4.7
2017-Apr-22 04:31N 37°47' W 122°23'2 4.9
2017-Apr-22 04:00N 37°49' W 122°24'3 6.6
2017-Apr-22 03:30N 37°49' W 122°28'3 5.3
2017-Apr-22 03:00N 37°49' W 122°25'0 0.4
2017-Apr-22 02:30N 37°49' W 122°25'0 0.0
2017-Apr-22 02:00N 37°49' W 122°25'0 0.0
2017-Apr-22 01:30N 37°49' W 122°25'0 0.0
2017-Apr-22 01:00N 37°49' W 122°25'3 5.7
2017-Apr-22 00:30N 37°49' W 122°28'3 5.8
2017-Apr-22 00:00N 37°49' W 122°25'1 2.4
2017-Apr-21 23:30N 37°50' W 122°25'1 2.4
2017-Apr-21 23:00N 37°49' W 122°26'1 2.2
2017-Apr-21 22:30N 37°49' W 122°25'3 5.3
2017-Apr-21 22:00N 37°49' W 122°28'3 5.3
2017-Apr-21 21:30N 37°49' W 122°25'1 1.5
2017-Apr-21 21:00N 37°49' W 122°25'3 5.2
2017-Apr-21 20:30N 37°49' W 122°28'2 4.9
2017-Apr-21 20:00N 37°49' W 122°25'0 0.0
2017-Apr-21 19:30N 37°49' W 122°25'1 2.5
2017-Apr-21 19:00N 37°50' W 122°25'2 3.2
2017-Apr-21 18:30N 37°49' W 122°27'2 3.5
2017-Apr-21 18:00N 37°49' W 122°25'3 5.0
2017-Apr-21 17:30N 37°49' W 122°28'3 5.0
2017-Apr-21 17:00N 37°49' W 122°25'0 0.0
2017-Apr-21 16:30N 37°49' W 122°25'0 0.0
2017-Apr-21 01:07N 37°49' W 122°25'0 0.0
2017-Apr-21 01:00N 37°49' W 122°25'2 4.4
2017-Apr-21 00:30N 37°49' W 122°27'2 4.4
2017-Apr-21 00:00N 37°49' W 122°25'1 1.9
2017-Apr-20 23:30N 37°50' W 122°25'2 3.5
2017-Apr-20 23:00N 37°49' W 122°27'2 3.3
2017-Apr-20 22:30N 37°49' W 122°25'2 5.0
2017-Apr-20 22:00N 37°49' W 122°28'2 5.0
2017-Apr-20 21:30N 37°49' W 122°25'1 1.3
2017-Apr-20 21:00N 37°49' W 122°24'3 5.9
2017-Apr-20 20:30N 37°49' W 122°28'3 5.3
2017-Apr-20 20:00N 37°49' W 122°25'0 0.0
2017-Apr-20 19:30N 37°49' W 122°25'1 2.5
2017-Apr-20 19:00N 37°50' W 122°25'1 2.9
2017-Apr-20 18:30N 37°49' W 122°27'2 3.2
2017-Apr-20 18:00N 37°49' W 122°25'2 4.5
2017-Apr-20 17:30N 37°49' W 122°28'2 4.5
2017-Apr-20 17:00N 37°49' W 122°25'0 0.0
2017-Apr-20 16:30N 37°49' W 122°25'0 0.0
2017-Apr-20 12:54N 37°49' W 122°25'0 0.0
2017-Apr-20 03:25N 37°49' W 122°25'1 1.9
2017-Apr-20 03:00N 37°49' W 122°24'2 3.7
2017-Apr-20 02:30N 37°47' W 122°22'4 7.4
2017-Apr-20 02:00N 37°50' W 122°26'1 2.6
2017-Apr-20 01:30N 37°49' W 122°27'1 2.7
2017-Apr-20 01:00N 37°49' W 122°25'0 0.0
2017-Apr-20 00:30N 37°49' W 122°25'0 0.0
2017-Apr-20 00:00N 37°49' W 122°25'0 0.0
2017-Apr-19 23:30N 37°49' W 122°25'0 0.0
2017-Apr-19 23:00N 37°49' W 122°25'2 4.6
2017-Apr-19 22:30N 37°50' W 122°28'2 4.6
2017-Apr-19 22:00N 37°49' W 122°25'1 1.0
2017-Apr-19 21:30N 37°49' W 122°24'3 5.4
2017-Apr-19 21:00N 37°49' W 122°28'2 4.6
2017-Apr-19 20:30N 37°49' W 122°25'0 0.0
2017-Apr-19 20:00N 37°49' W 122°25'1 2.2
2017-Apr-19 19:30N 37°50' W 122°25'2 3.1
2017-Apr-19 19:00N 37°49' W 122°27'2 3.2
2017-Apr-19 18:30N 37°49' W 122°25'3 5.2
2017-Apr-19 18:00N 37°49' W 122°28'3 5.2
2017-Apr-19 17:30N 37°49' W 122°25'0 0.0
2017-Apr-19 01:07N 37°49' W 122°25'0 0.0
2017-Apr-19 01:00N 37°49' W 122°25'2 5.0
2017-Apr-19 00:30N 37°49' W 122°28'2 5.0
2017-Apr-19 00:00N 37°49' W 122°25'1 2.0
2017-Apr-18 23:30N 37°50' W 122°25'1 2.7
2017-Apr-18 23:00N 37°49' W 122°27'1 2.7
2017-Apr-18 22:30N 37°49' W 122°25'2 4.2
2017-Apr-18 22:01N 37°49' W 122°27'2 4.2
2017-Apr-18 21:30N 37°49' W 122°25'0 0.8
2017-Apr-18 21:00N 37°49' W 122°24'3 6.1
2017-Apr-18 20:30N 37°49' W 122°28'3 5.5
2017-Apr-18 20:00N 37°49' W 122°25'0 0.0
2017-Apr-18 19:30N 37°49' W 122°25'1 1.6
2017-Apr-18 19:00N 37°49' W 122°25'2 3.6
2017-Apr-18 18:30N 37°49' W 122°27'2 3.6
2017-Apr-18 18:00N 37°49' W 122°25'2 4.7
2017-Apr-18 17:30N 37°49' W 122°28'2 4.6
2017-Apr-18 17:00N 37°49' W 122°25'0 0.0
2017-Apr-18 01:07N 37°49' W 122°25'0 0.0
2017-Apr-18 01:00N 37°49' W 122°25'2 4.2
2017-Apr-18 00:30N 37°50' W 122°27'2 4.2
2017-Apr-18 00:00N 37°49' W 122°25'1 1.4
2017-Apr-17 23:30N 37°49' W 122°25'2 4.3
2017-Apr-17 23:00N 37°49' W 122°27'2 3.9
2017-Apr-17 22:30N 37°49' W 122°25'2 4.5
2017-Apr-17 22:00N 37°50' W 122°27'2 4.5
2017-Apr-17 21:30N 37°49' W 122°25'0 0.9
2017-Apr-17 21:00N 37°49' W 122°24'3 5.8
2017-Apr-17 20:30N 37°49' W 122°28'2 5.0
2017-Apr-17 20:00N 37°49' W 122°25'0 0.0
2017-Apr-17 19:30N 37°49' W 122°25'1 1.6
2017-Apr-17 19:00N 37°49' W 122°25'2 3.7
2017-Apr-17 18:30N 37°49' W 122°27'2 3.5
2017-Apr-17 18:00N 37°49' W 122°25'2 4.6
2017-Apr-17 17:30N 37°49' W 122°28'2 4.6
2017-Apr-17 17:00N 37°49' W 122°25'0 0.0
2017-Apr-17 01:05N 37°49' W 122°25'0 0.0
2017-Apr-17 01:00N 37°49' W 122°25'2 4.8
2017-Apr-17 00:30N 37°50' W 122°28'2 4.7
2017-Apr-17 00:00N 37°49' W 122°25'0 0.0
2017-Apr-16 23:30N 37°49' W 122°25'0 0.0
2017-Apr-16 23:00N 37°49' W 122°25'0 0.0
2017-Apr-16 22:30N 37°49' W 122°25'2 4.8
2017-Apr-16 22:00N 37°50' W 122°28'2 4.8
2017-Apr-16 21:30N 37°49' W 122°25'0 0.8
2017-Apr-16 21:00N 37°49' W 122°24'3 6.5
2017-Apr-16 20:30N 37°49' W 122°29'3 5.9
2017-Apr-16 20:00N 37°49' W 122°25'0 0.0
2017-Apr-16 19:30N 37°49' W 122°25'1 2.0
2017-Apr-16 19:00N 37°50' W 122°25'1 2.9
2017-Apr-16 18:30N 37°49' W 122°27'1 2.9
2017-Apr-16 18:00N 37°49' W 122°25'2 4.3
2017-Apr-16 17:30N 37°49' W 122°27'2 4.2
2017-Apr-16 17:00N 37°49' W 122°25'0 0.0
2017-Apr-16 01:11N 37°49' W 122°25'0 0.0
2017-Apr-16 01:00N 37°49' W 122°25'3 5.7
2017-Apr-16 00:31N 37°49' W 122°28'3 5.7
2017-Apr-16 00:00N 37°49' W 122°25'1 2.7
2017-Apr-15 23:30N 37°50' W 122°26'1 2.3
2017-Apr-15 23:01N 37°49' W 122°26'1 2.2
2017-Apr-15 22:31N 37°49' W 122°25'  
Track history (hours):
 
Tides and Currents Weather Stations Pressure Air Temp Water Temp Dewpoint Dewpoint Depression Visibility Wind Speed Wind Dir Waves Ship Positions

Royal Prince

Owner: Golden Gate Scenic Steamship Corp, SAN FRANCISCO, CA. More information available from US FCC via Universal Licensing System and Coast Guard Vessel Documentation Center.

Last reported at 2017-Apr-25 22:01 UTC. Time now 2017-Apr-25 22:25 UTC.
Position N 37°49' W 122°27'.

; draft 3 m.

Type: Passenger vessel. MMSI: 366975760.

Date/timePositionNaut miles runAvg speedWind from/ knotsBaromVisibWave heightAir tempDewpointWater temp
2017-Apr-25 22:01N 37°49' W 122°27'2 4.2
2017-Apr-25 21:30N 37°49' W 122°25'0 0.9
2017-Apr-25 21:01N 37°49' W 122°24'3 6.7
2017-Apr-25 20:31N 37°49' W 122°29'3 6.2
2017-Apr-25 20:01N 37°49' W 122°25'0 0.0
2017-Apr-25 19:30N 37°49' W 122°25'1 1.9
2017-Apr-25 19:00N 37°50' W 122°25'2 3.3
2017-Apr-25 18:30N 37°49' W 122°27'2 3.2
2017-Apr-25 18:00N 37°49' W 122°25'2 4.1
2017-Apr-25 17:30N 37°50' W 122°27'2 4.0
2017-Apr-25 17:00N 37°49' W 122°25'0 0.0
2017-Apr-25 01:05N 37°49' W 122°25'0 0.0
2017-Apr-25 01:00N 37°49' W 122°25'2 3.9
2017-Apr-25 00:30N 37°49' W 122°27'2 3.9
2017-Apr-25 00:00N 37°49' W 122°25'1 1.6
2017-Apr-24 23:30N 37°49' W 122°25'2 4.0
2017-Apr-24 23:00N 37°49' W 122°27'2 4.0
2017-Apr-24 22:30N 37°49' W 122°25'2 4.1
2017-Apr-24 22:00N 37°50' W 122°27'2 4.0
2017-Apr-24 21:30N 37°49' W 122°25'0 0.9
2017-Apr-24 21:00N 37°49' W 122°24'3 6.6
2017-Apr-24 20:30N 37°49' W 122°29'3 6.1
2017-Apr-24 20:00N 37°49' W 122°25'0 0.0
2017-Apr-24 19:30N 37°49' W 122°25'1 1.8
2017-Apr-24 19:00N 37°49' W 122°25'2 3.9
2017-Apr-24 18:30N 37°49' W 122°27'2 3.9
2017-Apr-24 18:00N 37°49' W 122°25'2 4.7
2017-Apr-24 17:30N 37°49' W 122°28'2 4.7
2017-Apr-24 17:00N 37°49' W 122°25'0 0.0
2017-Apr-24 01:07N 37°49' W 122°25'0 0.0
2017-Apr-24 01:00N 37°49' W 122°25'3 5.3
2017-Apr-24 00:30N 37°49' W 122°28'3 5.3
2017-Apr-24 00:00N 37°49' W 122°25'1 2.1
2017-Apr-23 23:30N 37°50' W 122°25'2 3.1
2017-Apr-23 23:00N 37°49' W 122°27'2 3.2
2017-Apr-23 22:30N 37°49' W 122°25'2 4.6
2017-Apr-23 22:00N 37°49' W 122°28'2 4.5
2017-Apr-23 21:30N 37°49' W 122°25'1 1.3
2017-Apr-23 21:00N 37°49' W 122°25'3 5.5
2017-Apr-23 20:30N 37°49' W 122°28'3 5.2
2017-Apr-23 20:00N 37°49' W 122°25'0 0.0
2017-Apr-23 19:30N 37°49' W 122°25'1 1.7
2017-Apr-23 19:00N 37°49' W 122°25'2 3.9
2017-Apr-23 18:30N 37°49' W 122°27'2 3.9
2017-Apr-23 18:00N 37°49' W 122°25'2 4.2
2017-Apr-23 17:30N 37°49' W 122°27'2 4.2
2017-Apr-23 17:00N 37°49' W 122°25'0 0.0
2017-Apr-23 01:15N 37°49' W 122°25'0 0.0
2017-Apr-23 01:00N 37°49' W 122°25'3 6.1
2017-Apr-23 00:30N 37°49' W 122°29'3 5.9
2017-Apr-22 23:59N 37°49' W 122°25'1 2.5
2017-Apr-22 23:30N 37°50' W 122°25'1 2.6
2017-Apr-22 23:00N 37°49' W 122°27'1 2.7
2017-Apr-22 22:30N 37°49' W 122°25'2 4.8
2017-Apr-22 22:00N 37°49' W 122°28'2 4.7
2017-Apr-22 21:30N 37°49' W 122°25'1 1.5
2017-Apr-22 21:00N 37°49' W 122°25'3 5.5
2017-Apr-22 20:30N 37°49' W 122°28'3 5.2
2017-Apr-22 20:00N 37°49' W 122°25'0 0.0
2017-Apr-22 19:30N 37°49' W 122°25'1 2.4
2017-Apr-22 19:00N 37°50' W 122°25'2 3.2
2017-Apr-22 18:30N 37°49' W 122°27'2 3.5
2017-Apr-22 18:00N 37°49' W 122°25'3 5.7
2017-Apr-22 17:30N 37°49' W 122°28'3 5.7
2017-Apr-22 17:00N 37°49' W 122°25'0 0.0
2017-Apr-22 16:30N 37°49' W 122°25'0 0.0
2017-Apr-22 05:35N 37°49' W 122°25'0 0.0
2017-Apr-22 05:30N 37°49' W 122°25'0 0.0
2017-Apr-22 05:00N 37°49' W 122°25'2 4.7
2017-Apr-22 04:31N 37°47' W 122°23'2 4.9
2017-Apr-22 04:00N 37°49' W 122°24'3 6.6
2017-Apr-22 03:30N 37°49' W 122°28'3 5.3
2017-Apr-22 03:00N 37°49' W 122°25'0 0.4
2017-Apr-22 02:30N 37°49' W 122°25'0 0.0
2017-Apr-22 02:00N 37°49' W 122°25'0 0.0
2017-Apr-22 01:30N 37°49' W 122°25'0 0.0
2017-Apr-22 01:00N 37°49' W 122°25'3 5.7
2017-Apr-22 00:30N 37°49' W 122°28'3 5.8
2017-Apr-22 00:00N 37°49' W 122°25'1 2.4
2017-Apr-21 23:30N 37°50' W 122°25'1 2.4
2017-Apr-21 23:00N 37°49' W 122°26'1 2.2
2017-Apr-21 22:30N 37°49' W 122°25'3 5.3
2017-Apr-21 22:00N 37°49' W 122°28'3 5.3
2017-Apr-21 21:30N 37°49' W 122°25'1 1.5
2017-Apr-21 21:00N 37°49' W 122°25'3 5.2
2017-Apr-21 20:30N 37°49' W 122°28'2 4.9
2017-Apr-21 20:00N 37°49' W 122°25'0 0.0
2017-Apr-21 19:30N 37°49' W 122°25'1 2.5
2017-Apr-21 19:00N 37°50' W 122°25'2 3.2
2017-Apr-21 18:30N 37°49' W 122°27'2 3.5
2017-Apr-21 18:00N 37°49' W 122°25'3 5.0
2017-Apr-21 17:30N 37°49' W 122°28'3 5.0
2017-Apr-21 17:00N 37°49' W 122°25'0 0.0
2017-Apr-21 16:30N 37°49' W 122°25'0 0.0
2017-Apr-21 01:07N 37°49' W 122°25'0 0.0
2017-Apr-21 01:00N 37°49' W 122°25'2 4.4
2017-Apr-21 00:30N 37°49' W 122°27'2 4.4
2017-Apr-21 00:00N 37°49' W 122°25'1 1.9
2017-Apr-20 23:30N 37°50' W 122°25'2 3.5
2017-Apr-20 23:00N 37°49' W 122°27'2 3.3
2017-Apr-20 22:30N 37°49' W 122°25'2 5.0
2017-Apr-20 22:00N 37°49' W 122°28'2 5.0
2017-Apr-20 21:30N 37°49' W 122°25'1 1.3
2017-Apr-20 21:00N 37°49' W 122°24'3 5.9
2017-Apr-20 20:30N 37°49' W 122°28'3 5.3
2017-Apr-20 20:00N 37°49' W 122°25'0 0.0
2017-Apr-20 19:30N 37°49' W 122°25'1 2.5
2017-Apr-20 19:00N 37°50' W 122°25'1 2.9
2017-Apr-20 18:30N 37°49' W 122°27'2 3.2
2017-Apr-20 18:00N 37°49' W 122°25'2 4.5
2017-Apr-20 17:30N 37°49' W 122°28'2 4.5
2017-Apr-20 17:00N 37°49' W 122°25'0 0.0
2017-Apr-20 16:30N 37°49' W 122°25'0 0.0
2017-Apr-20 12:54N 37°49' W 122°25'0 0.0
2017-Apr-20 03:25N 37°49' W 122°25'1 1.9
2017-Apr-20 03:00N 37°49' W 122°24'2 3.7
2017-Apr-20 02:30N 37°47' W 122°22'4 7.4
2017-Apr-20 02:00N 37°50' W 122°26'1 2.6
2017-Apr-20 01:30N 37°49' W 122°27'1 2.7
2017-Apr-20 01:00N 37°49' W 122°25'0 0.0
2017-Apr-20 00:30N 37°49' W 122°25'0 0.0
2017-Apr-20 00:00N 37°49' W 122°25'0 0.0
2017-Apr-19 23:30N 37°49' W 122°25'0 0.0
2017-Apr-19 23:00N 37°49' W 122°25'2 4.6
2017-Apr-19 22:30N 37°50' W 122°28'2 4.6
2017-Apr-19 22:00N 37°49' W 122°25'1 1.0
2017-Apr-19 21:30N 37°49' W 122°24'3 5.4
2017-Apr-19 21:00N 37°49' W 122°28'2 4.6
2017-Apr-19 20:30N 37°49' W 122°25'0 0.0
2017-Apr-19 20:00N 37°49' W 122°25'1 2.2
2017-Apr-19 19:30N 37°50' W 122°25'2 3.1
2017-Apr-19 19:00N 37°49' W 122°27'2 3.2
2017-Apr-19 18:30N 37°49' W 122°25'3 5.2
2017-Apr-19 18:00N 37°49' W 122°28'3 5.2
2017-Apr-19 17:30N 37°49' W 122°25'0 0.0
2017-Apr-19 01:07N 37°49' W 122°25'0 0.0
2017-Apr-19 01:00N 37°49' W 122°25'2 5.0
2017-Apr-19 00:30N 37°49' W 122°28'2 5.0
2017-Apr-19 00:00N 37°49' W 122°25'1 2.0
2017-Apr-18 23:30N 37°50' W 122°25'1 2.7
2017-Apr-18 23:00N 37°49' W 122°27'1 2.7
2017-Apr-18 22:30N 37°49' W 122°25'2 4.2
2017-Apr-18 22:01N 37°49' W 122°27'2 4.2
2017-Apr-18 21:30N 37°49' W 122°25'0 0.8
2017-Apr-18 21:00N 37°49' W 122°24'3 6.1
2017-Apr-18 20:30N 37°49' W 122°28'3 5.5
2017-Apr-18 20:00N 37°49' W 122°25'0 0.0
2017-Apr-18 19:30N 37°49' W 122°25'1 1.6
2017-Apr-18 19:00N 37°49' W 122°25'2 3.6
2017-Apr-18 18:30N 37°49' W 122°27'2 3.6
2017-Apr-18 18:00N 37°49' W 122°25'2 4.7
2017-Apr-18 17:30N 37°49' W 122°28'2 4.6
2017-Apr-18 17:00N 37°49' W 122°25'0 0.0
2017-Apr-18 01:07N 37°49' W 122°25'0 0.0
2017-Apr-18 01:00N 37°49' W 122°25'2 4.2
2017-Apr-18 00:30N 37°50' W 122°27'2 4.2
2017-Apr-18 00:00N 37°49' W 122°25'1 1.4
2017-Apr-17 23:30N 37°49' W 122°25'2 4.3
2017-Apr-17 23:00N 37°49' W 122°27'2 3.9
2017-Apr-17 22:30N 37°49' W 122°25'2 4.5
2017-Apr-17 22:00N 37°50' W 122°27'2 4.5
2017-Apr-17 21:30N 37°49' W 122°25'0 0.9
2017-Apr-17 21:00N 37°49' W 122°24'3 5.8
2017-Apr-17 20:30N 37°49' W 122°28'2 5.0
2017-Apr-17 20:00N 37°49' W 122°25'0 0.0
2017-Apr-17 19:30N 37°49' W 122°25'1 1.6
2017-Apr-17 19:00N 37°49' W 122°25'2 3.7
2017-Apr-17 18:30N 37°49' W 122°27'2 3.5
2017-Apr-17 18:00N 37°49' W 122°25'2 4.6
2017-Apr-17 17:30N 37°49' W 122°28'2 4.6
2017-Apr-17 17:00N 37°49' W 122°25'0 0.0
2017-Apr-17 01:05N 37°49' W 122°25'0 0.0
2017-Apr-17 01:00N 37°49' W 122°25'2 4.8
2017-Apr-17 00:30N 37°50' W 122°28'2 4.7
2017-Apr-17 00:00N 37°49' W 122°25'0 0.0
2017-Apr-16 23:30N 37°49' W 122°25'0 0.0
2017-Apr-16 23:00N 37°49' W 122°25'0 0.0
2017-Apr-16 22:30N 37°49' W 122°25'2 4.8
2017-Apr-16 22:00N 37°50' W 122°28'2 4.8
2017-Apr-16 21:30N 37°49' W 122°25'0 0.8
2017-Apr-16 21:00N 37°49' W 122°24'3 6.5
2017-Apr-16 20:30N 37°49' W 122°29'3 5.9
2017-Apr-16 20:00N 37°49' W 122°25'0 0.0
2017-Apr-16 19:30N 37°49' W 122°25'1 2.0
2017-Apr-16 19:00N 37°50' W 122°25'1 2.9
2017-Apr-16 18:30N 37°49' W 122°27'1 2.9
2017-Apr-16 18:00N 37°49' W 122°25'2 4.3
2017-Apr-16 17:30N 37°49' W 122°27'2 4.2
2017-Apr-16 17:00N 37°49' W 122°25'0 0.0
2017-Apr-16 01:11N 37°49' W 122°25'0 0.0
2017-Apr-16 01:00N 37°49' W 122°25'3 5.7
2017-Apr-16 00:31N 37°49' W 122°28'3 5.7
2017-Apr-16 00:00N 37°49' W 122°25'1 2.7
2017-Apr-15 23:30N 37°50' W 122°26'1 2.3
2017-Apr-15 23:01N 37°49' W 122°26'1 2.2
2017-Apr-15 22:31N 37°49' W 122°25'  

Dump ship's entire track history